Time;durP1;ratioP1;P1;durP2;ratioP2;P2;SDS_P1;SDS_P2;PMS_P1;PMS_P2;Temp;Humidity;BMP_temperature;BMP_pressure;BME280_temperature;BME280_humidity;BME280_pressure;Samples;Min_cycle;Max_cycle;Signal;HPM_P1;HPM_P2
2024/03/18 05:30:18;;;;;;;0.10;0.10;;;13.30;86.40;;;;;;5991029;23;20107;-78
2024/03/18 05:32:44;;;;;;;0.10;0.10;;;13.20;86.50;;;;;;4993036;28;20121;-78
2024/03/18 05:35:10;;;;;;;0.10;0.10;;;13.10;86.60;;;;;;4996635;28;20628;-78
2024/03/18 05:37:37;;;;;;;0.10;0.10;;;13.20;86.60;;;;;;4997031;28;20030;-78
2024/03/18 05:40:04;;;;;;;0.10;0.10;;;13.10;86.60;;;;;;4994768;28;20018;-78
2024/03/18 05:42:31;;;;;;;0.08;0.08;;;13.20;86.50;;;;;;4998895;28;20034;-78
2024/03/18 05:44:57;;;;;;;0.10;0.10;;;13.10;86.40;;;;;;4997102;28;20386;-78
2024/03/18 05:47:23;;;;;;;0.00;0.00;;;13.10;86.30;;;;;;4996226;28;20113;-82
2024/03/18 05:49:49;;;;;;;0.10;0.10;;;13.00;86.40;;;;;;4998552;28;20058;-78
2024/03/18 05:52:14;;;;;;;0.10;0.10;;;12.90;86.30;;;;;;4998674;28;20034;-81
2024/03/18 05:54:40;;;;;;;0.08;0.08;;;12.90;86.20;;;;;;4991627;28;20470;-81
2024/03/18 05:57:07;;;;;;;0.10;0.10;;;12.90;86.50;;;;;;4977979;28;20490;-80
2024/03/18 05:59:32;;;;;;;0.10;0.10;;;12.90;86.50;;;;;;4979373;28;20023;-82
2024/03/18 06:01:58;;;;;;;0.10;0.10;;;12.90;86.40;;;;;;4994788;28;20025;-77
2024/03/18 06:04:24;;;;;;;0.10;0.10;;;12.90;86.40;;;;;;4998483;28;20041;-78
2024/03/18 06:06:50;;;;;;;0.00;0.00;;;13.00;86.40;;;;;;4988288;28;20019;-77
2024/03/18 06:09:17;;;;;;;0.10;0.10;;;13.00;86.20;;;;;;4979110;28;20537;-78
2024/03/18 06:11:43;;;;;;;0.00;0.00;;;12.90;85.50;;;;;;4979180;28;20019;-88
2024/03/18 06:14:10;;;;;;;0.10;0.10;;;12.90;86.00;;;;;;4993623;28;20136;-80
2024/03/18 06:16:36;;;;;;;0.00;0.00;;;12.80;85.90;;;;;;4978041;28;20026;-79
2024/03/18 06:19:04;;;;;;;0.10;0.10;;;12.80;85.90;;;;;;4992859;28;20034;-79
2024/03/18 06:21:39;;;;;;;0.00;0.00;;;12.70;86.00;;;;;;4998491;28;20046;-77
2024/03/18 06:24:07;;;;;;;0.10;0.10;;;12.60;86.20;;;;;;4986625;28;20094;-77
2024/03/18 06:26:33;;;;;;;0.10;0.10;;;12.60;86.00;;;;;;4981734;28;20014;-78
2024/03/18 06:28:59;;;;;;;0.00;0.00;;;12.60;86.00;;;;;;4997978;28;20035;-79
2024/03/18 06:31:26;;;;;;;0.00;0.00;;;12.70;86.10;;;;;;4993984;28;20057;-78
2024/03/18 06:33:55;;;;;;;0.10;0.10;;;12.70;85.70;;;;;;4994190;28;20173;-78
2024/03/18 06:36:21;;;;;;;0.10;0.10;;;12.70;85.80;;;;;;4989311;28;20031;-78
2024/03/18 06:38:47;;;;;;;0.00;0.00;;;12.70;85.50;;;;;;4997876;28;20037;-77
2024/03/18 06:41:13;;;;;;;0.10;0.10;;;12.70;85.90;;;;;;4996975;28;20049;-76
2024/03/18 06:43:39;;;;;;;0.10;0.10;;;12.70;85.90;;;;;;4994100;28;20100;-78
2024/03/18 06:46:09;;;;;;;0.10;0.10;;;12.80;85.90;;;;;;4999825;28;20030;-79
2024/03/18 06:48:38;;;;;;;0.10;0.10;;;12.90;85.70;;;;;;4997703;28;20030;-80
2024/03/18 06:51:05;;;;;;;0.00;0.00;;;12.90;85.70;;;;;;4996692;28;20092;-80
2024/03/18 06:53:31;;;;;;;0.10;0.10;;;13.00;85.60;;;;;;4983867;28;20038;-80
2024/03/18 06:55:56;;;;;;;0.10;0.10;;;13.10;85.40;;;;;;4997106;28;20081;-80
2024/03/18 06:58:26;;;;;;;0.10;0.10;;;13.10;85.40;;;;;;5026373;28;20069;-80
2024/03/18 07:00:52;;;;;;;0.10;0.10;;;13.20;85.10;;;;;;4994470;28;20038;-86
2024/03/18 07:03:20;;;;;;;0.10;0.10;;;13.20;85.30;;;;;;4996576;28;20379;-85
2024/03/18 07:05:45;;;;;;;0.10;0.10;;;13.30;85.30;;;;;;4995658;28;20030;-85
2024/03/18 07:08:12;;;;;;;0.10;0.10;;;13.30;85.20;;;;;;4994627;28;20038;-84
2024/03/18 07:10:38;;;;;;;0.10;0.10;;;13.30;85.40;;;;;;4995763;28;20022;-85
2024/03/18 07:13:03;;;;;;;0.10;0.10;;;13.20;85.30;;;;;;4995297;28;20034;-84
2024/03/18 07:15:29;;;;;;;0.10;0.10;;;13.20;85.30;;;;;;4995452;28;20030;-84
2024/03/18 07:17:55;;;;;;;0.10;0.10;;;13.20;85.50;;;;;;5020708;28;20034;-85
2024/03/18 07:20:21;;;;;;;0.10;0.10;;;13.20;85.30;;;;;;5020203;28;20073;-84
2024/03/18 07:22:46;;;;;;;0.10;0.10;;;13.20;85.30;;;;;;5012123;28;20089;-85
2024/03/18 07:25:17;;;;;;;0.10;0.10;;;13.20;85.20;;;;;;4996690;28;20030;-83
2024/03/18 07:27:45;;;;;;;0.10;0.10;;;13.20;85.30;;;;;;5027895;28;20038;-84
2024/03/18 07:30:13;;;;;;;0.10;0.10;;;13.30;85.20;;;;;;4993130;28;20023;-84
2024/03/18 07:32:39;;;;;;;0.20;0.20;;;13.50;84.70;;;;;;4996636;28;20046;-85
2024/03/18 07:35:06;;;;;;;0.10;0.10;;;13.90;84.40;;;;;;4995596;28;20070;-84
2024/03/18 07:37:32;;;;;;;0.10;0.10;;;14.50;83.00;;;;;;5008765;28;20482;-85
2024/03/18 07:39:58;;;;;;;0.10;0.10;;;14.50;82.70;;;;;;4993294;28;20435;-85
2024/03/18 07:42:25;;;;;;;0.10;0.10;;;14.60;82.30;;;;;;5026240;28;20030;-84
2024/03/18 07:44:57;;;;;;;0.10;0.10;;;14.60;82.20;;;;;;4994848;28;20033;-85
2024/03/18 07:47:23;;;;;;;0.10;0.10;;;14.60;82.20;;;;;;4995620;28;20050;-86
2024/03/18 07:49:49;;;;;;;0.10;0.10;;;14.60;82.10;;;;;;4996901;28;20054;-86
2024/03/18 07:52:15;;;;;;;0.10;0.10;;;14.50;82.20;;;;;;4987399;28;20518;-86
2024/03/18 07:54:42;;;;;;;0.10;0.10;;;14.60;82.10;;;;;;4995624;28;20037;-86
2024/03/18 07:57:07;;;;;;;0.10;0.10;;;14.70;82.00;;;;;;4993540;28;20042;-88
2024/03/18 07:59:33;;;;;;;0.17;0.17;;;14.70;81.60;;;;;;5000784;28;20086;-89
2024/03/18 08:01:59;;;;;;;0.20;0.20;;;14.80;81.10;;;;;;4998109;28;20112;-86
2024/03/18 08:04:26;;;;;;;0.10;0.10;;;15.10;80.30;;;;;;4999139;28;20026;-86
2024/03/18 08:06:52;;;;;;;0.10;0.10;;;15.20;79.90;;;;;;4998929;28;20018;-87
2024/03/18 08:09:19;;;;;;;0.10;0.10;;;15.10;79.60;;;;;;5006444;28;20038;-87
2024/03/18 08:11:46;;;;;;;0.10;0.10;;;15.10;79.90;;;;;;4998221;28;20513;-85
2024/03/18 08:14:13;;;;;;;0.10;0.10;;;15.20;79.00;;;;;;4994059;28;20045;-88
2024/03/18 08:16:39;;;;;;;0.10;0.10;;;15.20;79.40;;;;;;4978463;28;20038;-87
2024/03/18 08:19:05;;;;;;;0.10;0.10;;;15.20;80.00;;;;;;4975568;28;20030;-87
2024/03/18 08:21:31;;;;;;;0.10;0.10;;;15.30;79.50;;;;;;4976218;28;20126;-87
2024/03/18 08:23:58;;;;;;;0.10;0.10;;;15.30;79.90;;;;;;4979741;28;20030;-88
2024/03/18 08:26:24;;;;;;;0.10;0.10;;;15.40;79.80;;;;;;4992475;28;20038;-87
2024/03/18 08:28:49;;;;;;;0.10;0.10;;;15.70;79.50;;;;;;4995982;28;20080;-87
2024/03/18 08:31:16;;;;;;;0.10;0.10;;;15.70;78.20;;;;;;4996643;28;20038;-86
2024/03/18 08:33:42;;;;;;;0.10;0.10;;;15.70;78.70;;;;;;4976010;28;20042;-87
2024/03/18 08:36:07;;;;;;;0.10;0.10;;;15.80;78.70;;;;;;4979861;28;20031;-87
2024/03/18 08:38:33;;;;;;;0.10;0.10;;;15.80;77.90;;;;;;4992044;28;20069;-88
2024/03/18 08:40:59;;;;;;;0.10;0.10;;;15.90;78.30;;;;;;4997099;28;20394;-87
2024/03/18 08:43:25;;;;;;;0.10;0.10;;;15.90;77.50;;;;;;5012974;28;20030;-87
2024/03/18 08:45:54;;;;;;;0.10;0.10;;;16.00;77.80;;;;;;4993205;28;20433;-89
2024/03/18 08:48:20;;;;;;;0.10;0.10;;;15.80;76.50;;;;;;4994605;28;20694;-84
2024/03/18 08:50:46;;;;;;;0.10;0.10;;;15.80;76.70;;;;;;4993676;28;20035;-84
2024/03/18 08:53:12;;;;;;;0.10;0.10;;;15.80;76.90;;;;;;4993167;28;20042;-84
2024/03/18 08:55:39;;;;;;;0.10;0.10;;;16.10;76.80;;;;;;4994653;28;20397;-84
2024/03/18 08:58:04;;;;;;;0.10;0.10;;;16.30;75.90;;;;;;4996191;28;20030;-84
2024/03/18 09:00:30;;;;;;;0.10;0.10;;;16.40;75.50;;;;;;4980867;28;20509;-84
2024/03/18 09:02:57;;;;;;;0.10;0.10;;;16.30;74.80;;;;;;4975895;28;20026;-84
2024/03/18 09:05:23;;;;;;;0.10;0.10;;;16.30;75.20;;;;;;4991253;28;20018;-83
2024/03/18 09:07:49;;;;;;;0.10;0.10;;;16.20;75.40;;;;;;4993575;28;20037;-84
2024/03/18 09:10:14;;;;;;;0.10;0.10;;;16.10;75.60;;;;;;4987770;28;20023;-85
2024/03/18 09:12:41;;;;;;;0.10;0.10;;;16.10;75.20;;;;;;4993365;28;20031;-84
2024/03/18 09:15:07;;;;;;;0.10;0.10;;;16.20;75.80;;;;;;4996877;28;20027;-84
2024/03/18 09:17:33;;;;;;;0.10;0.10;;;16.30;75.80;;;;;;4978938;28;20038;-84
2024/03/18 09:19:59;;;;;;;0.40;0.40;;;16.30;74.90;;;;;;4992723;28;20023;-86
2024/03/18 09:22:24;;;;;;;0.30;0.30;;;16.60;75.40;;;;;;4979934;28;20629;-84
2024/03/18 09:24:50;;;;;;;0.30;0.30;;;17.30;73.20;;;;;;4980036;28;20017;-86
2024/03/18 09:27:16;;;;;;;0.50;0.50;;;17.70;71.60;;;;;;4979583;28;20057;-85
2024/03/18 09:29:42;;;;;;;0.30;0.30;;;18.30;71.50;;;;;;4980094;28;20049;-85
2024/03/18 09:32:08;;;;;;;0.20;0.20;;;19.10;68.90;;;;;;4980094;28;20487;-85
2024/03/18 09:34:33;;;;;;;0.10;0.10;;;19.30;68.30;;;;;;5011037;28;20487;-85
2024/03/18 09:36:59;;;;;;;0.20;0.20;;;19.40;67.90;;;;;;4995050;28;20027;-84
2024/03/18 09:39:25;;;;;;;0.10;0.10;;;19.30;65.80;;;;;;4998115;28;20065;-85
2024/03/18 09:41:53;;;;;;;0.10;0.10;;;18.90;65.20;;;;;;4999061;28;20027;-86
2024/03/18 09:44:19;;;;;;;0.10;0.10;;;18.30;67.00;;;;;;4997876;28;20034;-86
2024/03/18 09:46:45;;;;;;;0.10;0.10;;;17.80;67.20;;;;;;4983973;28;20026;-84
2024/03/18 09:49:22;;;;;;;0.10;0.10;;;17.50;68.40;;;;;;4979423;28;20038;-84
2024/03/18 09:51:49;;;;;;;0.03;0.03;;;17.30;67.90;;;;;;4981368;28;20505;-85
2024/03/18 09:54:19;;;;;;;0.10;0.10;;;17.10;69.60;;;;;;5030110;28;20052;-85
2024/03/18 09:56:51;;;;;;;0.08;0.08;;;17.00;69.70;;;;;;4983618;28;20030;-86
2024/03/18 09:59:17;;;;;;;0.10;0.10;;;17.10;69.80;;;;;;4979236;28;20027;-85
2024/03/18 10:01:42;;;;;;;0.00;0.00;;;16.90;69.60;;;;;;4979295;28;20527;-85
2024/03/18 10:04:08;;;;;;;0.10;0.10;;;16.90;69.40;;;;;;4979467;28;20091;-84
2024/03/18 10:06:34;;;;;;;0.00;0.00;;;16.70;67.80;;;;;;5014056;28;20035;-85
2024/03/18 10:09:00;;;;;;;0.00;0.00;;;16.50;68.20;;;;;;4978219;28;20054;-85
2024/03/18 10:11:25;;;;;;;0.00;0.00;;;16.40;69.90;;;;;;4977518;28;20133;-86
2024/03/18 10:13:51;;;;;;;0.10;0.10;;;16.30;70.40;;;;;;4994466;28;20038;-87
2024/03/18 10:16:17;;;;;;;0.03;0.03;;;16.30;70.70;;;;;;4997381;28;20030;-86
2024/03/18 10:18:45;;;;;;;0.03;0.03;;;16.20;70.60;;;;;;4996917;28;20034;-86
2024/03/18 10:21:12;;;;;;;0.10;0.10;;;16.10;71.00;;;;;;4993577;28;20046;-86
2024/03/18 10:23:40;;;;;;;0.10;0.10;;;15.90;71.00;;;;;;4993953;28;20023;-87
2024/03/18 10:26:07;;;;;;;0.10;0.10;;;15.90;71.30;;;;;;4978735;28;20093;-86
2024/03/18 10:28:33;;;;;;;0.10;0.10;;;15.90;71.30;;;;;;5004332;28;20034;-86
2024/03/18 10:31:00;;;;;;;0.10;0.10;;;16.00;71.60;;;;;;4998063;28;20050;-88
2024/03/18 10:33:25;;;;;;;0.10;0.10;;;16.10;71.80;;;;;;4999989;28;20093;-87
2024/03/18 10:35:54;;;;;;;0.10;0.10;;;16.30;71.10;;;;;;5027608;28;21290;-87
2024/03/18 10:38:24;;;;;;;0.10;0.10;;;16.40;71.00;;;;;;4978855;28;20041;-86
2024/03/18 10:40:54;;;;;;;0.10;0.10;;;16.60;70.80;;;;;;4998018;28;20033;-86
2024/03/18 10:43:36;;;;;;;0.10;0.10;;;16.80;70.70;;;;;;4992666;28;20030;-86
2024/03/18 10:46:02;;;;;;;0.10;0.10;;;17.10;69.70;;;;;;5012015;28;20030;-87
2024/03/18 10:48:28;;;;;;;0.10;0.10;;;17.30;68.50;;;;;;4997363;28;20074;-86
2024/03/18 10:50:55;;;;;;;0.10;0.10;;;17.30;66.90;;;;;;5029346;28;20034;-88
2024/03/18 10:53:25;;;;;;;0.10;0.10;;;17.40;68.30;;;;;;4993171;28;20022;-86
2024/03/18 10:55:52;;;;;;;0.10;0.10;;;17.40;67.60;;;;;;4987064;28;20091;-86
2024/03/18 10:58:21;;;;;;;0.10;0.10;;;17.50;67.50;;;;;;4986080;28;20062;-87
2024/03/18 11:00:47;;;;;;;0.10;0.10;;;17.50;66.90;;;;;;4978165;28;20097;-83
2024/03/18 11:03:19;;;;;;;0.10;0.10;;;17.40;65.80;;;;;;4978028;28;20027;-86
2024/03/18 11:05:47;;;;;;;0.10;0.10;;;17.40;67.50;;;;;;4982216;28;20049;-86
2024/03/18 11:08:13;;;;;;;0.10;0.10;;;17.40;67.50;;;;;;5024752;28;20026;-86
2024/03/18 11:10:40;;;;;;;0.10;0.10;;;17.30;67.60;;;;;;4996630;28;20114;-85
2024/03/18 11:13:18;;;;;;;0.10;0.10;;;17.20;66.50;;;;;;4995056;28;20038;-85
2024/03/18 11:15:46;;;;;;;0.10;0.10;;;17.10;67.10;;;;;;4995924;28;20030;-86
2024/03/18 11:18:19;;;;;;;0.05;0.05;;;16.90;68.40;;;;;;4993288;28;20030;-87
2024/03/18 11:20:49;;;;;;;0.10;0.10;;;16.70;68.50;;;;;;4976575;28;20023;-86
2024/03/18 11:23:23;;;;;;;0.10;0.10;;;16.60;68.50;;;;;;4978468;28;20038;-88
2024/03/18 11:25:53;;;;;;;0.00;0.00;;;16.60;68.80;;;;;;4996329;28;20027;-86
2024/03/18 11:28:18;;;;;;;0.00;0.00;;;16.50;69.20;;;;;;4992158;28;20027;-87
2024/03/18 11:30:47;;;;;;;0.03;0.03;;;16.50;69.20;;;;;;4977724;28;20054;-88
2024/03/18 11:33:13;;;;;;;0.10;0.10;;;16.50;69.20;;;;;;4992408;28;20066;-87
2024/03/18 11:35:41;;;;;;;0.10;0.10;;;16.70;69.00;;;;;;4996619;28;20054;-88
2024/03/18 11:38:13;;;;;;;0.10;0.10;;;16.70;69.10;;;;;;4995938;28;20026;-88
2024/03/18 11:40:39;;;;;;;0.10;0.10;;;16.60;69.20;;;;;;4993077;28;20031;-88
2024/03/18 11:43:06;;;;;;;0.10;0.10;;;16.50;68.90;;;;;;4992331;28;20058;-87
2024/03/18 11:45:32;;;;;;;0.10;0.10;;;16.50;69.30;;;;;;5009297;28;20023;-87
2024/03/18 11:48:06;;;;;;;0.00;0.00;;;16.50;69.30;;;;;;4992228;28;20027;-86
2024/03/18 11:50:39;;;;;;;0.00;0.00;;;16.30;69.40;;;;;;4993039;28;20471;-86
2024/03/18 11:53:07;;;;;;;;;;;16.30;69.10;;;;;;4977755;28;20035;-87
2024/03/18 11:55:36;;;;;;;0.10;0.10;;;16.30;69.90;;;;;;4980856;28;19996;-87
2024/03/18 11:58:03;;;;;;;0.10;0.10;;;16.30;70.70;;;;;;4976100;28;20105;-86
2024/03/18 12:00:33;;;;;;;0.05;0.05;;;16.50;70.60;;;;;;4993987;28;20158;-86
2024/03/18 12:03:04;;;;;;;0.00;0.00;;;16.50;69.80;;;;;;4986878;28;20027;-84
2024/03/18 12:05:31;;;;;;;0.10;0.10;;;16.40;70.30;;;;;;4980982;28;20018;-87
2024/03/18 12:07:57;;;;;;;0.10;0.10;;;16.40;69.50;;;;;;4996444;28;20143;-87
2024/03/18 12:10:24;;;;;;;0.00;0.00;;;16.50;68.90;;;;;;4996006;28;20375;-87
2024/03/18 12:12:50;;;;;;;0.10;0.10;;;16.50;69.20;;;;;;4975843;28;20554;-87
2024/03/18 12:15:16;;;;;;;0.10;0.10;;;16.50;69.20;;;;;;4976407;28;20076;-88
2024/03/18 12:17:43;;;;;;;0.10;0.10;;;16.40;69.20;;;;;;4977088;28;20039;-88
2024/03/18 12:20:25;;;;;;;0.00;0.00;;;16.30;69.30;;;;;;4997297;28;20375;-85
2024/03/18 12:23:03;;;;;;;0.00;0.00;;;16.30;69.70;;;;;;5008423;28;20023;-90
2024/03/18 12:31:12;;;;;;;0.10;0.10;;;16.30;70.30;;;;;;4997775;28;20053;-86
2024/03/18 12:33:42;;;;;;;0.10;0.10;;;16.30;69.10;;;;;;4995159;28;20073;-86
2024/03/18 12:36:18;;;;;;;0.10;0.10;;;16.50;69.50;;;;;;4989124;28;20035;-86
2024/03/18 12:38:48;;;;;;;0.10;0.10;;;16.70;69.90;;;;;;4996068;28;20028;-86
2024/03/18 12:41:15;;;;;;;0.10;0.10;;;16.60;66.60;;;;;;4992784;28;20030;-85
2024/03/18 12:43:42;;;;;;;0.10;0.10;;;16.70;67.60;;;;;;4977027;28;20479;-85
2024/03/18 12:46:10;;;;;;;0.05;0.05;;;16.60;66.50;;;;;;4977190;28;20045;-86
2024/03/18 12:48:36;;;;;;;0.10;0.10;;;16.70;67.20;;;;;;4980449;28;20510;-83
2024/03/18 12:51:03;;;;;;;0.10;0.10;;;16.70;66.80;;;;;;4980669;28;20030;-84
2024/03/18 12:53:29;;;;;;;0.10;0.10;;;16.70;67.20;;;;;;4995807;28;20101;-89
2024/03/18 12:55:55;;;;;;;0.10;0.10;;;16.50;66.80;;;;;;4980581;28;20062;-84
2024/03/18 12:58:20;;;;;;;0.00;0.00;;;16.40;67.30;;;;;;4979798;28;20030;-84
2024/03/18 13:00:46;;;;;;;0.10;0.10;;;16.50;67.90;;;;;;5011795;28;20019;-84
2024/03/18 13:03:18;;;;;;;0.10;0.10;;;16.50;67.80;;;;;;5011673;28;20442;-85
2024/03/18 13:05:46;;;;;;;0.10;0.10;;;16.50;67.80;;;;;;4985454;28;20061;-84
2024/03/18 13:08:13;;;;;;;0.10;0.10;;;16.50;67.80;;;;;;4999747;28;20371;-83
2024/03/18 13:10:42;;;;;;;0.10;0.10;;;16.50;67.50;;;;;;4999754;28;20101;-83
2024/03/18 13:13:25;;;;;;;0.10;0.10;;;16.40;68.30;;;;;;4997608;28;20121;-83
2024/03/18 13:15:57;;;;;;;0.10;0.10;;;16.40;68.20;;;;;;4999405;28;20101;-84
2024/03/18 13:18:25;;;;;;;0.10;0.10;;;16.40;67.30;;;;;;4996906;28;20397;-83
2024/03/18 13:20:51;;;;;;;0.10;0.10;;;16.50;67.30;;;;;;4979777;28;20031;-83
2024/03/18 13:23:20;;;;;;;0.10;0.10;;;16.60;67.30;;;;;;5011465;28;20026;-83
2024/03/18 13:25:48;;;;;;;0.10;0.10;;;16.70;67.40;;;;;;5011474;28;20501;-84
2024/03/18 13:28:13;;;;;;;0.10;0.10;;;16.80;67.20;;;;;;4979819;28;20019;-84
2024/03/18 13:30:40;;;;;;;0.10;0.10;;;17.00;67.00;;;;;;4979474;28;20033;-84
2024/03/18 13:33:07;;;;;;;0.10;0.10;;;17.10;66.60;;;;;;5011273;28;20077;-84
2024/03/18 13:35:33;;;;;;;0.10;0.10;;;17.00;65.20;;;;;;5015851;28;20417;-84
2024/03/18 13:37:59;;;;;;;0.10;0.10;;;17.10;65.90;;;;;;4998131;28;20037;-81
2024/03/18 13:40:25;;;;;;;0.10;0.10;;;17.30;66.00;;;;;;4993912;28;20019;-84
2024/03/18 13:42:52;;;;;;;0.10;0.10;;;17.30;65.10;;;;;;4978352;28;20050;-85
2024/03/18 13:45:18;;;;;;;0.10;0.10;;;17.30;65.30;;;;;;4979948;28;20062;-84
2024/03/18 13:47:44;;;;;;;0.10;0.10;;;17.30;65.50;;;;;;4979585;28;20478;-84
2024/03/18 13:50:10;;;;;;;0.10;0.10;;;17.30;64.40;;;;;;5011099;28;20398;-84
2024/03/18 13:52:36;;;;;;;0.10;0.10;;;17.30;64.80;;;;;;5010871;28;20146;-85
2024/03/18 13:55:03;;;;;;;0.10;0.10;;;17.50;64.40;;;;;;4979939;28;20031;-85
2024/03/18 13:57:32;;;;;;;0.10;0.10;;;17.50;64.30;;;;;;4978994;28;20490;-85
2024/03/18 13:59:58;;;;;;;0.03;0.03;;;17.50;63.90;;;;;;4978451;28;20026;-84
2024/03/18 14:02:23;;;;;;;0.10;0.10;;;17.50;63.90;;;;;;5010642;28;20030;-85
2024/03/18 14:04:52;;;;;;;0.10;0.10;;;17.40;64.00;;;;;;4985634;28;20034;-84
2024/03/18 14:07:17;;;;;;;0.10;0.10;;;17.30;63.80;;;;;;4998493;28;20022;-84
2024/03/18 14:09:44;;;;;;;0.10;0.10;;;17.20;64.10;;;;;;4998423;28;20026;-84
2024/03/18 14:12:15;;;;;;;0.00;0.00;;;17.30;63.90;;;;;;4998607;28;20018;-84
2024/03/18 14:14:41;;;;;;;0.10;0.10;;;17.30;64.60;;;;;;4982717;28;20037;-83
2024/03/18 14:17:07;;;;;;;0.08;0.08;;;17.20;64.90;;;;;;5015952;28;20022;-84
2024/03/18 14:19:33;;;;;;;0.10;0.10;;;17.20;65.80;;;;;;4998673;28;20033;-81
2024/03/18 14:22:00;;;;;;;0.10;0.10;;;17.10;65.20;;;;;;4996900;28;20033;-83
2024/03/18 14:24:27;;;;;;;0.00;0.00;;;17.00;65.20;;;;;;4997871;28;20069;-81
2024/03/18 14:26:56;;;;;;;0.00;0.00;;;17.00;65.70;;;;;;4997444;28;20054;-83
2024/03/18 14:29:23;;;;;;;0.10;0.10;;;17.10;66.50;;;;;;4984454;28;20027;-83
2024/03/18 14:31:49;;;;;;;0.10;0.10;;;17.20;66.80;;;;;;4994034;28;20046;-83
2024/03/18 14:34:16;;;;;;;0.10;0.10;;;17.10;64.50;;;;;;5005121;28;20508;-83
2024/03/18 14:36:43;;;;;;;0.10;0.10;;;17.20;64.90;;;;;;5001102;28;20080;-81
2024/03/18 14:39:11;;;;;;;0.10;0.10;;;17.40;64.90;;;;;;4986833;28;20039;-81
2024/03/18 14:41:40;;;;;;;0.10;0.10;;;17.70;65.40;;;;;;4996738;28;20022;-81
2024/03/18 14:44:07;;;;;;;0.10;0.10;;;17.80;64.80;;;;;;4995248;28;20088;-84
2024/03/18 14:46:34;;;;;;;0.10;0.10;;;17.60;63.60;;;;;;4996762;28;20090;-81
2024/03/18 14:48:59;;;;;;;0.10;0.10;;;17.50;64.00;;;;;;4996864;28;20038;-83
2024/03/18 14:51:26;;;;;;;0.10;0.10;;;17.50;64.20;;;;;;4995912;28;20505;-83
2024/03/18 14:53:52;;;;;;;0.10;0.10;;;17.50;63.90;;;;;;4990307;28;20123;-82
2024/03/18 14:56:17;;;;;;;0.10;0.10;;;17.60;63.30;;;;;;5010041;28;20031;-81
2024/03/18 14:58:46;;;;;;;0.10;0.10;;;17.70;63.30;;;;;;5009473;28;20070;-82
2024/03/18 15:01:15;;;;;;;0.10;0.10;;;17.60;62.90;;;;;;4978506;28;20027;-83
2024/03/18 15:03:41;;;;;;;0.10;0.10;;;17.50;62.40;;;;;;4977922;28;20031;-83
2024/03/18 15:06:07;;;;;;;0.00;0.00;;;17.60;62.60;;;;;;4981905;28;20065;-82
2024/03/18 15:08:32;;;;;;;0.10;0.10;;;17.60;62.30;;;;;;4978325;28;20034;-82
2024/03/18 15:11:00;;;;;;;0.10;0.10;;;17.60;62.60;;;;;;4976810;28;20187;-82
2024/03/18 15:13:44;;;;;;;0.10;0.10;;;17.60;62.80;;;;;;4977444;28;20868;-82
2024/03/18 15:16:11;;;;;;;0.00;0.00;;;17.70;62.70;;;;;;4992887;28;20022;-82
2024/03/18 15:18:40;;;;;;;0.10;0.10;;;17.80;63.20;;;;;;4997134;28;20043;-82
2024/03/18 15:21:07;;;;;;;0.10;0.10;;;17.70;62.70;;;;;;4992156;28;20390;-82
2024/03/18 15:29:04;;;;;;;0.10;0.10;;;17.70;63.50;;;;;;5004734;28;20513;-79
2024/03/18 15:31:31;;;;;;;0.10;0.10;;;17.50;62.80;;;;;;4995983;28;20053;-82
2024/03/18 15:34:01;;;;;;;0.10;0.10;;;17.30;63.30;;;;;;5010018;28;20468;-82
2024/03/18 15:36:34;;;;;;;0.10;0.10;;;17.20;64.10;;;;;;4996379;28;20049;-82
2024/03/18 15:39:00;;;;;;;0.10;0.10;;;17.10;64.20;;;;;;4995488;28;20034;-82
2024/03/18 15:41:27;;;;;;;0.10;0.10;;;17.00;64.50;;;;;;4993496;28;20053;-82
2024/03/18 15:43:53;;;;;;;0.10;0.10;;;17.00;65.40;;;;;;4995639;28;20038;-82
2024/03/18 15:46:20;;;;;;;0.10;0.10;;;17.10;65.00;;;;;;4999531;28;20030;-82
2024/03/18 15:48:49;;;;;;;0.10;0.10;;;17.10;65.30;;;;;;4995435;28;20030;-82
2024/03/18 15:51:15;;;;;;;0.00;0.00;;;17.10;65.30;;;;;;4997053;28;20025;-82
2024/03/18 15:53:41;;;;;;;0.10;0.10;;;17.10;65.50;;;;;;4993878;28;20027;-82
2024/03/18 15:56:10;;;;;;;0.10;0.10;;;17.10;65.20;;;;;;5028152;28;20165;-82
2024/03/18 15:58:37;;;;;;;0.10;0.10;;;17.20;64.80;;;;;;4992139;28;20018;-82
2024/03/18 16:01:03;;;;;;;0.10;0.10;;;17.20;64.70;;;;;;5008961;28;20060;-83
2024/03/18 16:03:30;;;;;;;0.10;0.10;;;17.20;64.90;;;;;;4976977;28;20018;-82
2024/03/18 16:06:04;;;;;;;0.00;0.00;;;17.10;64.60;;;;;;4983955;28;20082;-82
2024/03/18 16:08:34;;;;;;;0.10;0.10;;;17.10;65.40;;;;;;4995651;28;20527;-82
2024/03/18 16:11:02;;;;;;;0.00;0.00;;;16.90;65.30;;;;;;4996877;28;20027;-83
2024/03/18 16:13:28;;;;;;;0.03;0.03;;;16.90;65.20;;;;;;5015811;28;20481;-82
2024/03/18 16:15:54;;;;;;;0.10;0.10;;;16.80;66.10;;;;;;5002694;28;20155;-83
2024/03/18 16:18:20;;;;;;;0.00;0.00;;;16.80;66.60;;;;;;4991408;28;20101;-81
2024/03/18 16:20:46;;;;;;;0.10;0.10;;;16.70;66.70;;;;;;4991427;28;20057;-82
2024/03/18 16:23:11;;;;;;;0.10;0.10;;;16.60;67.00;;;;;;4993866;28;20035;-83
2024/03/18 16:25:37;;;;;;;0.10;0.10;;;16.60;67.00;;;;;;4980369;28;20498;-82
2024/03/18 16:28:06;;;;;;;0.10;0.10;;;16.60;66.80;;;;;;4987622;28;20034;-82
2024/03/18 16:30:35;;;;;;;0.10;0.10;;;16.60;67.00;;;;;;4994510;28;20019;-82
2024/03/18 16:33:09;;;;;;;0.00;0.00;;;16.70;67.10;;;;;;4998404;28;20041;-83
2024/03/18 16:35:36;;;;;;;0.10;0.10;;;16.70;67.10;;;;;;4996366;28;20026;-82
2024/03/18 16:38:05;;;;;;;0.00;0.00;;;16.70;67.00;;;;;;4999794;28;20478;-82
2024/03/18 16:40:30;;;;;;;0.00;0.00;;;16.60;67.00;;;;;;4997461;28;20057;-83
2024/03/18 16:42:56;;;;;;;0.05;0.05;;;16.60;67.70;;;;;;5003367;28;20022;-86
2024/03/18 16:45:22;;;;;;;0.00;0.00;;;16.50;67.60;;;;;;5005821;28;20034;-82
2024/03/18 16:47:48;;;;;;;0.10;0.10;;;16.40;67.40;;;;;;5008586;28;20030;-82
2024/03/18 16:50:14;;;;;;;0.00;0.00;;;16.30;67.70;;;;;;5004954;28;20085;-82
2024/03/18 16:52:39;;;;;;;0.10;0.10;;;16.30;67.70;;;;;;5004725;28;20034;-84
2024/03/18 16:55:09;;;;;;;0.10;0.10;;;16.20;67.50;;;;;;5005327;28;20120;-83
2024/03/18 16:57:35;;;;;;;0.08;0.08;;;16.10;67.90;;;;;;5001339;28;20065;-85
2024/03/18 17:00:09;;;;;;;0.00;0.00;;;16.10;68.00;;;;;;5002950;28;20019;-84
2024/03/18 17:02:35;;;;;;;0.10;0.10;;;16.00;68.20;;;;;;4998343;28;20640;-84
2024/03/18 17:05:00;;;;;;;0.08;0.08;;;16.10;68.40;;;;;;5002525;28;20050;-84
2024/03/18 17:07:26;;;;;;;0.00;0.00;;;16.00;68.30;;;;;;4993524;28;20055;-84
2024/03/18 17:09:52;;;;;;;0.10;0.10;;;16.00;68.50;;;;;;5004931;28;20022;-84
2024/03/18 17:12:19;;;;;;;0.00;0.00;;;16.00;68.50;;;;;;4998265;28;20030;-84
2024/03/18 17:14:44;;;;;;;0.00;0.00;;;15.90;68.50;;;;;;5001011;28;20050;-84
2024/03/18 17:17:10;;;;;;;0.10;0.10;;;15.90;68.40;;;;;;4995500;28;20045;-85
2024/03/18 17:19:36;;;;;;;0.00;0.00;;;15.80;67.80;;;;;;4993397;28;20037;-84
2024/03/18 17:22:03;;;;;;;0.00;0.00;;;15.80;67.80;;;;;;4996739;28;20501;-84
2024/03/18 17:24:29;;;;;;;0.00;0.00;;;15.80;68.40;;;;;;4998014;28;20030;-84
2024/03/18 17:26:55;;;;;;;0.00;0.00;;;15.70;68.90;;;;;;5002130;28;20030;-83
2024/03/18 17:29:21;;;;;;;0.05;0.05;;;15.70;69.00;;;;;;5006766;28;20023;-83
2024/03/18 17:31:47;;;;;;;0.10;0.10;;;15.70;68.90;;;;;;4997909;28;20038;-84
2024/03/18 17:34:12;;;;;;;0.00;0.00;;;15.70;68.70;;;;;;4994504;28;20063;-80
2024/03/18 17:36:38;;;;;;;0.00;0.00;;;15.60;69.10;;;;;;4995264;28;20387;-81
2024/03/18 17:39:05;;;;;;;0.00;0.00;;;15.60;69.00;;;;;;4994590;28;20039;-81
2024/03/18 17:41:31;;;;;;;0.03;0.03;;;15.50;69.10;;;;;;4995508;28;20018;-81
2024/03/18 17:43:57;;;;;;;0.10;0.10;;;15.50;69.30;;;;;;4995684;28;20106;-80
2024/03/18 17:46:22;;;;;;;0.03;0.03;;;15.40;69.20;;;;;;4994033;28;20058;-80
2024/03/18 17:48:48;;;;;;;0.10;0.10;;;15.40;69.00;;;;;;4993048;28;20042;-81
2024/03/18 17:51:13;;;;;;;0.00;0.00;;;15.30;69.60;;;;;;4990041;28;20441;-81
2024/03/18 17:53:39;;;;;;;0.00;0.00;;;15.30;69.60;;;;;;4990351;28;20056;-81
2024/03/18 17:56:05;;;;;;;0.10;0.10;;;15.30;69.80;;;;;;4997715;28;20056;-80
2024/03/18 17:58:31;;;;;;;0.00;0.00;;;15.20;70.10;;;;;;5008737;28;20030;-77
2024/03/18 18:00:57;;;;;;;0.10;0.10;;;15.20;70.30;;;;;;5024895;28;20030;-79
2024/03/18 18:03:23;;;;;;;0.10;0.10;;;15.20;70.20;;;;;;4989359;28;20038;-75
2024/03/18 18:05:49;;;;;;;0.10;0.10;;;15.20;70.50;;;;;;4995056;28;20437;-77
2024/03/18 18:08:15;;;;;;;0.00;0.00;;;15.20;70.40;;;;;;4989306;28;20547;-86
2024/03/18 18:10:40;;;;;;;0.00;0.00;;;15.20;70.40;;;;;;5014427;28;20034;-81
2024/03/18 18:13:09;;;;;;;0.00;0.00;;;15.20;70.00;;;;;;4997613;28;20049;-85
2024/03/18 18:15:35;;;;;;;0.00;0.00;;;15.00;70.20;;;;;;4995432;28;20037;-81
2024/03/18 18:18:02;;;;;;;0.00;0.00;;;15.00;70.20;;;;;;4998042;28;20116;-77
2024/03/18 18:20:31;;;;;;;0.00;0.00;;;14.90;70.40;;;;;;4997793;28;20023;-77
2024/03/18 18:22:57;;;;;;;0.00;0.00;;;14.90;70.70;;;;;;4998630;28;20018;-76
2024/03/18 18:25:23;;;;;;;0.10;0.10;;;14.80;70.80;;;;;;4983802;28;20117;-76
2024/03/18 18:27:48;;;;;;;0.00;0.00;;;14.80;70.90;;;;;;4981290;28;20510;-77